createdAt,value
2023-04-29T00:00:09.882Z,4.07
2023-04-29T00:02:39.150Z,4.37
2023-04-29T00:05:07.667Z,3.83
2023-04-29T00:07:36.502Z,3.90
2023-04-29T00:10:04.442Z,3.80
2023-04-29T00:12:33.417Z,3.73
2023-04-29T00:15:03.077Z,4.40
2023-04-29T00:17:31.053Z,3.87
2023-04-29T00:20:00.206Z,3.77
2023-04-29T00:22:28.061Z,3.77
2023-04-29T00:24:55.825Z,3.70
2023-04-29T00:27:23.574Z,3.60
2023-04-29T00:29:51.440Z,3.60
2023-04-29T00:32:19.330Z,3.20
2023-04-29T00:34:47.075Z,3.80
2023-04-29T00:37:16.368Z,3.60
2023-04-29T00:39:44.106Z,3.90
2023-04-29T00:42:12.648Z,3.57
2023-04-29T00:44:40.408Z,3.83
2023-04-29T00:47:11.458Z,4.10
2023-04-29T00:49:39.253Z,3.80
2023-04-29T00:52:08.181Z,3.60
2023-04-29T00:54:38.238Z,3.77
2023-04-29T00:57:07.359Z,3.97
2023-04-29T00:59:35.155Z,3.20
2023-04-29T01:02:04.241Z,3.83
2023-04-29T01:04:32.186Z,3.67
2023-04-29T01:07:03.166Z,3.10
2023-04-29T01:09:35.993Z,3.67
2023-04-29T01:12:08.946Z,3.47
2023-04-29T01:14:36.970Z,3.33
2023-04-29T01:17:07.488Z,3.70
2023-04-29T01:19:42.019Z,3.50
2023-04-29T01:22:09.768Z,3.60
2023-04-29T01:24:39.003Z,4.13
2023-04-29T01:27:12.785Z,3.80
2023-04-29T01:29:45.334Z,3.63
2023-04-29T01:32:15.102Z,3.80
2023-04-29T01:34:45.800Z,4.13
2023-04-29T01:37:17.957Z,4.10
2023-04-29T01:39:55.301Z,3.80
2023-04-29T01:42:25.638Z,3.80
2023-04-29T01:44:56.704Z,3.93
2023-04-29T01:47:24.644Z,4.10
2023-04-29T01:49:52.682Z,3.50
2023-04-29T01:52:20.677Z,3.60
2023-04-29T01:54:49.797Z,3.73
2023-04-29T01:57:17.571Z,3.53
2023-04-29T01:59:45.295Z,3.80
2023-04-29T02:02:15.427Z,3.60
2023-04-29T02:04:43.818Z,3.57
2023-04-29T02:07:11.534Z,3.70
2023-04-29T02:09:39.221Z,3.90
2023-04-29T02:12:08.330Z,3.43
2023-04-29T02:14:37.774Z,3.43
2023-04-29T02:17:05.903Z,3.27
2023-04-29T02:19:33.721Z,3.70
2023-04-29T02:22:01.481Z,3.70
2023-04-29T02:24:29.211Z,3.53
2023-04-29T02:26:57.097Z,3.50
2023-04-29T02:29:32.398Z,3.43
2023-04-29T02:32:00.188Z,3.60
2023-04-29T02:34:27.976Z,4.27
2023-04-29T02:36:55.712Z,3.90
2023-04-29T02:39:23.440Z,3.47
2023-04-29T02:41:51.304Z,3.63
2023-04-29T02:44:19.022Z,3.67
2023-04-29T02:46:48.128Z,3.30
2023-04-29T02:49:15.967Z,3.70
2023-04-29T02:51:43.729Z,3.00
2023-04-29T02:54:11.790Z,3.60
2023-04-29T02:56:39.568Z,3.70
2023-04-29T02:59:07.313Z,3.47
2023-04-29T03:01:35.154Z,3.67
2023-04-29T03:04:04.420Z,3.63
2023-04-29T03:06:32.669Z,3.70
2023-04-29T03:09:00.462Z,3.03
2023-04-29T03:11:28.146Z,3.37
2023-04-29T03:13:55.869Z,3.60
2023-04-29T03:16:24.504Z,3.60
2023-04-29T03:18:52.342Z,3.30
2023-04-29T03:21:21.455Z,3.20
2023-04-29T03:23:49.647Z,3.30
2023-04-29T03:26:17.545Z,3.90
2023-04-29T03:28:45.384Z,3.43
2023-04-29T03:31:13.118Z,3.30
2023-04-29T03:33:40.834Z,3.10
2023-04-29T03:36:08.958Z,2.90
2023-04-29T03:38:38.092Z,3.10
2023-04-29T03:41:06.403Z,2.97
2023-04-29T03:43:34.344Z,3.30
2023-04-29T03:46:02.078Z,3.20
2023-04-29T03:48:29.920Z,3.13
2023-04-29T03:50:57.665Z,3.10
2023-04-29T03:53:26.343Z,3.00
2023-04-29T03:55:55.540Z,3.20
2023-04-29T03:58:24.064Z,3.40
2023-04-29T04:00:52.109Z,3.60
2023-04-29T04:03:19.967Z,3.63
2023-04-29T04:05:47.828Z,3.70
2023-04-29T04:08:15.566Z,4.10
2023-04-29T04:10:43.297Z,3.83
2023-04-29T04:13:12.642Z,3.87
2023-04-29T04:15:40.469Z,3.53
2023-04-29T04:18:08.202Z,4.10
2023-04-29T04:20:38.136Z,3.97
2023-04-29T04:23:05.839Z,3.70
2023-04-29T04:25:33.543Z,3.77
2023-04-29T04:28:01.343Z,4.00
2023-04-29T04:30:30.469Z,4.30
2023-04-29T04:32:58.580Z,4.03
2023-04-29T04:35:26.340Z,4.20
2023-04-29T04:37:54.117Z,3.83
2023-04-29T04:40:22.142Z,4.03
2023-04-29T04:42:49.860Z,4.17
2023-04-29T04:45:17.642Z,4.13
2023-04-29T04:47:46.795Z,4.23
2023-04-29T04:50:14.555Z,4.70
2023-04-29T04:52:42.783Z,3.90
2023-04-29T04:55:11.869Z,4.10
2023-04-29T04:57:41.083Z,3.90
2023-04-29T05:00:09.394Z,4.20
2023-04-29T05:02:37.235Z,4.30
2023-04-29T05:05:06.617Z,4.63
2023-04-29T05:07:35.934Z,3.53
2023-04-29T05:10:04.072Z,3.73
2023-04-29T05:12:32.528Z,3.67
2023-04-29T05:15:00.275Z,3.50
2023-04-29T05:17:28.103Z,3.60
2023-04-29T05:19:55.858Z,3.63
2023-04-29T05:22:25.039Z,3.83
2023-04-29T05:24:54.341Z,3.70
2023-04-29T05:27:22.131Z,3.70
2023-04-29T05:29:50.009Z,3.60
2023-04-29T05:32:18.019Z,3.80
2023-04-29T05:34:46.580Z,3.77
2023-04-29T05:37:14.314Z,3.60
2023-04-29T05:39:43.392Z,3.20
2023-04-29T05:42:11.138Z,3.60
2023-04-29T05:44:39.736Z,3.77
2023-04-29T05:47:07.474Z,3.50
2023-04-29T05:49:35.242Z,3.30
2023-04-29T05:52:06.462Z,3.60
2023-04-29T05:54:34.213Z,3.50
2023-04-29T05:57:03.658Z,3.60
2023-04-29T05:59:32.169Z,3.40
2023-04-29T06:02:00.101Z,3.47
2023-04-29T06:04:28.497Z,3.63
2023-04-29T06:06:57.793Z,3.40
2023-04-29T06:09:28.009Z,3.47
2023-04-29T06:11:56.323Z,3.57
2023-04-29T06:14:25.690Z,3.60
2023-04-29T06:16:53.860Z,3.77
2023-04-29T06:19:21.594Z,3.57
2023-04-29T06:21:49.347Z,3.40
2023-04-29T06:24:17.114Z,3.23
2023-04-29T06:26:45.024Z,3.23
2023-04-29T06:29:12.817Z,3.00
2023-04-29T06:31:42.026Z,2.70
2023-04-29T06:34:09.804Z,2.90
2023-04-29T06:36:37.575Z,2.90
2023-04-29T06:39:05.694Z,2.80
2023-04-29T06:41:34.084Z,2.63
2023-04-29T06:44:01.813Z,3.00
2023-04-29T06:46:29.825Z,2.90
2023-04-29T06:48:58.910Z,3.00
2023-04-29T06:51:28.085Z,2.77
2023-04-29T06:53:56.064Z,2.60
2023-04-29T06:56:23.853Z,2.80
2023-04-29T06:58:51.619Z,2.93
2023-04-29T07:01:19.468Z,2.90
2023-04-29T07:03:47.379Z,2.90
2023-04-29T07:06:16.647Z,3.10
2023-04-29T07:08:44.458Z,2.93
2023-04-29T07:11:12.301Z,2.53
2023-04-29T07:13:40.058Z,3.10
2023-04-29T07:16:20.113Z,3.03
2023-04-29T07:18:47.872Z,3.17
2023-04-29T07:21:17.001Z,2.77
2023-04-29T07:23:44.735Z,2.60
2023-04-29T07:26:13.268Z,2.93
2023-04-29T07:28:41.114Z,2.73
2023-04-29T07:31:09.318Z,2.60
2023-04-29T07:33:37.169Z,2.77
2023-04-29T07:36:05.022Z,2.67
2023-04-29T07:38:34.282Z,2.83
2023-04-29T07:41:03.169Z,2.80
2023-04-29T07:43:30.907Z,2.70
2023-04-29T07:45:58.683Z,3.00
2023-04-29T07:48:26.834Z,3.10
2023-04-29T07:50:54.948Z,2.63
2023-04-29T07:53:22.760Z,3.00
2023-04-29T07:55:51.852Z,2.40
2023-04-29T07:58:19.607Z,2.70
2023-04-29T08:00:47.396Z,2.10
2023-04-29T08:03:15.328Z,2.10
2023-04-29T08:05:45.057Z,2.00
2023-04-29T08:08:12.994Z,2.00
2023-04-29T08:10:43.246Z,2.10
2023-04-29T08:13:12.367Z,2.50
2023-04-29T08:15:40.098Z,1.93
2023-04-29T08:18:07.862Z,2.10
2023-04-29T08:20:35.776Z,1.93
2023-04-29T08:23:04.016Z,1.90
2023-04-29T08:25:31.753Z,1.80
2023-04-29T08:27:59.490Z,1.80
2023-04-29T08:30:28.728Z,2.00
2023-04-29T08:32:56.552Z,2.20
2023-04-29T08:35:24.340Z,2.40
2023-04-29T08:37:54.302Z,2.00
2023-04-29T08:40:22.370Z,1.83
2023-04-29T08:42:50.769Z,1.80
2023-04-29T08:45:20.334Z,1.60
2023-04-29T08:47:51.394Z,1.70
2023-04-29T08:50:19.578Z,1.77
2023-04-29T08:52:47.368Z,1.80
2023-04-29T08:55:15.184Z,1.80
2023-04-29T08:57:44.498Z,1.70
2023-04-29T09:00:13.340Z,1.70
2023-04-29T09:02:44.777Z,2.00
2023-04-29T09:05:14.223Z,2.30
2023-04-29T09:07:42.337Z,2.10
2023-04-29T09:10:10.887Z,1.87
2023-04-29T09:12:38.665Z,2.40
2023-04-29T09:15:06.985Z,2.30
2023-04-29T09:17:42.265Z,2.10
2023-04-29T09:20:30.394Z,2.00
2023-04-29T09:22:59.504Z,2.40
2023-04-29T09:25:27.616Z,2.50
2023-04-29T09:27:55.746Z,2.60
2023-04-29T09:30:23.542Z,2.50
2023-04-29T09:33:07.742Z,2.63
2023-04-29T09:35:37.376Z,2.53
2023-04-29T09:38:13.042Z,2.80
2023-04-29T09:40:57.326Z,2.70
2023-04-29T09:43:27.113Z,2.70
2023-04-29T09:45:55.133Z,2.93
2023-04-29T09:48:23.018Z,3.20
2023-04-29T09:51:02.910Z,3.00
2023-04-29T09:53:31.763Z,3.70
2023-04-29T09:56:00.781Z,3.40
2023-04-29T09:58:34.274Z,3.60
2023-04-29T10:01:03.613Z,3.67
2023-04-29T10:03:33.593Z,4.20
2023-04-29T10:06:03.694Z,3.70
2023-04-29T10:08:31.772Z,3.83
2023-04-29T10:11:01.020Z,3.30
2023-04-29T10:13:29.558Z,3.30
2023-04-29T10:15:59.602Z,3.90
2023-04-29T10:18:33.646Z,4.10
2023-04-29T10:21:03.507Z,3.73
2023-04-29T10:23:31.800Z,3.87
2023-04-29T10:26:00.655Z,3.87
2023-04-29T10:28:28.982Z,4.07
2023-04-29T10:30:57.269Z,3.97
2023-04-29T10:33:27.590Z,4.47
2023-04-29T10:35:56.637Z,4.40
2023-04-29T10:38:29.728Z,4.30
2023-04-29T10:40:59.296Z,4.20
2023-04-29T10:43:27.584Z,4.23
2023-04-29T10:46:10.387Z,3.77
2023-04-29T10:48:38.154Z,4.60
2023-04-29T10:51:06.180Z,4.43
2023-04-29T10:53:35.683Z,4.67
2023-04-29T10:56:09.004Z,4.47
2023-04-29T10:58:37.645Z,4.67
2023-04-29T11:01:05.599Z,4.60
2023-04-29T11:03:55.649Z,4.50
2023-04-29T11:06:25.148Z,4.80
2023-04-29T11:09:04.176Z,4.23
2023-04-29T11:11:54.173Z,4.87
2023-04-29T11:14:23.538Z,5.00
2023-04-29T11:16:53.340Z,4.63
2023-04-29T11:19:21.571Z,4.47
2023-04-29T11:21:49.351Z,4.47
2023-04-29T11:24:18.477Z,4.90
2023-04-29T11:26:46.593Z,4.50
2023-04-29T11:29:14.524Z,4.20
2023-04-29T11:31:42.377Z,4.80
2023-04-29T11:34:13.017Z,4.80
2023-04-29T11:36:40.880Z,4.30
2023-04-29T11:39:09.295Z,4.20
2023-04-29T11:41:39.341Z,4.70
2023-04-29T11:44:07.999Z,4.40
2023-04-29T11:46:35.866Z,4.43
2023-04-29T11:49:03.705Z,4.70
2023-04-29T11:51:32.892Z,4.90
2023-04-29T11:54:00.666Z,4.60
2023-04-29T11:56:28.472Z,5.20
2023-04-29T11:58:57.969Z,5.00
2023-04-29T12:01:26.620Z,4.67
2023-04-29T12:03:59.291Z,4.30
2023-04-29T12:06:28.670Z,4.60
2023-04-29T12:08:56.400Z,4.43
2023-04-29T12:11:25.404Z,4.10
2023-04-29T12:13:53.352Z,4.30
2023-04-29T12:16:24.202Z,4.20
2023-04-29T12:18:52.175Z,4.23
2023-04-29T12:21:19.881Z,4.70
2023-04-29T12:23:47.637Z,4.60
2023-04-29T12:26:15.526Z,4.60
2023-04-29T12:28:43.753Z,3.37
2023-04-29T12:31:11.944Z,2.80
2023-04-29T12:33:44.298Z,2.70
2023-04-29T12:36:18.349Z,2.50
2023-04-29T12:38:49.101Z,2.10
2023-04-29T12:41:17.580Z,2.40
2023-04-29T12:43:45.447Z,2.50
2023-04-29T12:46:13.895Z,2.40
2023-04-29T12:48:43.856Z,2.00
2023-04-29T12:51:12.109Z,2.10
2023-04-29T12:53:40.186Z,2.40
2023-04-29T12:56:08.451Z,2.40
2023-04-29T12:58:36.600Z,2.60
2023-04-29T13:01:04.539Z,2.47
2023-04-29T13:03:33.372Z,2.30
2023-04-29T13:06:02.740Z,2.60
2023-04-29T13:08:30.778Z,2.40
2023-04-29T13:10:58.614Z,2.30
2023-04-29T13:13:27.624Z,2.17
2023-04-29T13:15:55.307Z,2.00
2023-04-29T13:18:23.028Z,2.40
2023-04-29T13:20:52.974Z,2.00
2023-04-29T13:23:22.511Z,2.40
2023-04-29T13:25:51.484Z,2.23
2023-04-29T13:28:19.218Z,2.30
2023-04-29T13:30:46.935Z,2.00
2023-04-29T13:33:14.719Z,2.30
2023-04-29T13:35:42.573Z,2.03
2023-04-29T13:38:10.621Z,2.10
2023-04-29T13:40:45.535Z,2.07
2023-04-29T13:43:18.667Z,2.00
2023-04-29T13:45:53.149Z,2.10
2023-04-29T13:54:01.926Z,2.10
2023-04-29T14:01:44.127Z,2.00
2023-04-29T14:04:02.911Z,2.00
2023-04-29T14:06:32.383Z,1.70
2023-04-29T14:09:02.985Z,1.40
2023-04-29T14:11:36.584Z,1.30
2023-04-29T14:14:04.697Z,1.50
2023-04-29T14:16:33.104Z,1.67
2023-04-29T14:19:03.557Z,1.30
2023-04-29T14:21:33.433Z,1.47
2023-04-29T14:24:02.457Z,1.50
2023-04-29T14:26:30.277Z,1.40
2023-04-29T14:29:00.351Z,1.37
2023-04-29T14:31:29.260Z,1.40
2023-04-29T14:33:57.272Z,1.40
2023-04-29T14:36:25.111Z,1.50
2023-04-29T14:38:52.983Z,1.60
2023-04-29T14:41:21.921Z,1.60
2023-04-29T14:43:49.793Z,1.60
2023-04-29T14:46:18.964Z,1.80
2023-04-29T14:48:46.990Z,1.80
2023-04-29T14:51:14.801Z,1.63
2023-04-29T14:53:43.086Z,1.80
2023-04-29T14:56:10.868Z,1.70
2023-04-29T14:58:38.697Z,1.57
2023-04-29T15:01:06.553Z,1.70
2023-04-29T15:03:43.585Z,1.80
2023-04-29T15:06:12.377Z,1.60
2023-04-29T15:08:40.160Z,1.90
2023-04-29T15:11:07.894Z,1.70
2023-04-29T15:13:35.632Z,1.60
2023-04-29T15:16:03.491Z,1.60
2023-04-29T15:18:31.499Z,1.60
2023-04-29T15:21:00.630Z,1.50
2023-04-29T15:23:28.371Z,1.50
2023-04-29T15:25:56.140Z,1.60
2023-04-29T15:28:24.664Z,1.70
2023-04-29T15:30:52.597Z,1.40
2023-04-29T15:33:20.401Z,1.50
2023-04-29T15:35:48.192Z,1.60
2023-04-29T15:38:18.380Z,1.50
2023-04-29T15:40:46.487Z,1.40
2023-04-29T15:43:14.175Z,1.60
2023-04-29T15:45:42.272Z,1.40
2023-04-29T15:48:10.088Z,1.23
2023-04-29T15:50:37.795Z,1.40
2023-04-29T15:53:05.546Z,1.50
2023-04-29T15:55:35.172Z,1.60
2023-04-29T15:58:02.894Z,1.60
2023-04-29T16:00:30.671Z,1.30
2023-04-29T16:02:58.410Z,1.40
2023-04-29T16:05:26.441Z,1.43
2023-04-29T16:07:54.181Z,1.60
2023-04-29T16:10:21.957Z,1.60
2023-04-29T16:12:51.451Z,1.40
2023-04-29T16:15:19.133Z,1.43
2023-04-29T16:17:46.958Z,1.70
2023-04-29T16:20:14.725Z,1.40
2023-04-29T16:22:42.433Z,1.50
2023-04-29T16:25:11.081Z,1.60
2023-04-29T16:27:38.940Z,1.50
2023-04-29T16:30:09.046Z,1.60
2023-04-29T16:32:41.646Z,1.50
2023-04-29T16:35:09.823Z,1.80
2023-04-29T16:37:37.612Z,2.00
2023-04-29T16:40:05.797Z,2.33
2023-04-29T16:42:33.557Z,2.40
2023-04-29T16:45:01.237Z,2.03
2023-04-29T16:47:30.399Z,2.17
2023-04-29T16:49:58.136Z,2.20
2023-04-29T16:52:25.934Z,2.23
2023-04-29T16:54:53.643Z,2.10
2023-04-29T16:57:21.671Z,1.90
2023-04-29T16:59:49.390Z,1.90
2023-04-29T17:02:17.197Z,1.90
2023-04-29T17:04:46.437Z,1.90
2023-04-29T17:07:14.456Z,1.43
2023-04-29T17:09:42.238Z,1.60
2023-04-29T17:12:10.362Z,1.50
2023-04-29T17:14:39.805Z,1.50
2023-04-29T17:17:08.189Z,1.60
2023-04-29T17:19:35.963Z,1.50
2023-04-29T17:22:05.167Z,1.47
2023-04-29T17:24:33.693Z,1.40
2023-04-29T17:27:01.458Z,1.50
2023-04-29T17:29:29.162Z,1.40
2023-04-29T17:31:59.966Z,1.30
2023-04-29T17:34:29.911Z,1.30
2023-04-29T17:36:57.754Z,1.30
2023-04-29T17:39:26.884Z,1.57
2023-04-29T17:41:54.617Z,1.40
2023-04-29T17:44:23.663Z,1.30
2023-04-29T17:46:51.547Z,1.40
2023-04-29T17:49:19.276Z,1.30
2023-04-29T17:51:47.005Z,1.40
2023-04-29T17:54:14.739Z,1.40
2023-04-29T17:56:43.893Z,1.40
2023-04-29T17:59:11.962Z,1.30
2023-04-29T18:01:39.857Z,1.20
2023-04-29T18:04:07.680Z,1.40
2023-04-29T18:06:35.675Z,1.60
2023-04-29T18:09:03.527Z,1.50
2023-04-29T18:11:31.504Z,1.53
2023-04-29T18:14:01.123Z,1.70
2023-04-29T18:16:28.990Z,1.70
2023-04-29T18:18:57.196Z,1.70
2023-04-29T18:21:25.600Z,1.60
2023-04-29T18:23:53.436Z,2.00
2023-04-29T18:26:21.365Z,2.00
2023-04-29T18:28:50.814Z,2.40
2023-04-29T18:31:20.125Z,2.30
2023-04-29T18:33:47.884Z,2.30
2023-04-29T18:36:15.812Z,2.33
2023-04-29T18:38:44.228Z,2.57
2023-04-29T18:41:12.156Z,2.60
2023-04-29T18:43:39.922Z,2.50
2023-04-29T18:46:07.836Z,3.00
2023-04-29T18:48:38.898Z,2.90
2023-04-29T18:51:07.189Z,3.10
2023-04-29T18:53:34.962Z,3.10
2023-04-29T18:56:03.452Z,4.00
2023-04-29T18:58:31.506Z,3.30
2023-04-29T19:01:00.270Z,3.50
2023-04-29T19:03:28.222Z,3.83
2023-04-29T19:05:59.981Z,4.70
2023-04-29T19:08:27.806Z,4.87
2023-04-29T19:10:56.722Z,4.80
2023-04-29T19:13:26.687Z,4.80
2023-04-29T19:15:55.234Z,4.57
2023-04-29T19:18:24.099Z,5.27
2023-04-29T19:20:53.717Z,5.07
2023-04-29T19:23:23.647Z,5.27
2023-04-29T19:25:51.460Z,4.60
2023-04-29T19:28:19.397Z,4.93
2023-04-29T19:30:47.249Z,4.83
2023-04-29T19:33:15.076Z,4.80
2023-04-29T19:35:42.895Z,5.00
2023-04-29T19:38:11.090Z,4.30
2023-04-29T19:40:40.429Z,3.73
2023-04-29T19:43:08.237Z,3.60
2023-04-29T19:45:36.211Z,3.93
2023-04-29T19:48:04.069Z,3.80
2023-04-29T19:50:31.870Z,4.10
2023-04-29T19:52:59.593Z,3.70
2023-04-29T19:55:27.301Z,4.00
2023-04-29T19:57:56.488Z,3.70
2023-04-29T20:00:24.296Z,3.23
2023-04-29T20:02:52.475Z,2.93
2023-04-29T20:05:20.772Z,2.80
2023-04-29T20:07:48.684Z,3.30
2023-04-29T20:10:16.451Z,2.80
2023-04-29T20:12:44.147Z,2.90
2023-04-29T20:15:13.368Z,2.80
2023-04-29T20:17:41.556Z,2.70
2023-04-29T20:20:10.099Z,2.53
2023-04-29T20:22:37.854Z,2.90
2023-04-29T20:25:05.850Z,2.70
2023-04-29T20:27:33.546Z,2.90
2023-04-29T20:30:01.335Z,2.87
2023-04-29T20:32:31.341Z,3.00
2023-04-29T20:34:59.146Z,2.90
2023-04-29T20:37:26.878Z,2.90
2023-04-29T20:39:54.700Z,2.87
2023-04-29T20:42:22.745Z,2.97
2023-04-29T20:44:56.951Z,2.70
2023-04-29T20:47:24.698Z,2.60
2023-04-29T20:49:54.052Z,2.40
2023-04-29T20:52:21.982Z,2.90
2023-04-29T20:54:51.879Z,2.90
2023-04-29T20:57:19.665Z,2.80
2023-04-29T20:59:47.465Z,3.07
2023-04-29T21:02:15.619Z,2.83
2023-04-29T21:04:43.458Z,3.07
2023-04-29T21:07:12.818Z,3.60
2023-04-29T21:09:40.545Z,3.40
2023-04-29T21:12:08.349Z,3.50
2023-04-29T21:14:37.481Z,4.13
2023-04-29T21:17:05.276Z,4.23
2023-04-29T21:19:33.083Z,4.53
2023-04-29T21:22:01.420Z,4.83
2023-04-29T21:24:31.515Z,4.63
2023-04-29T21:26:59.261Z,4.90
2023-04-29T21:29:27.003Z,5.00
2023-04-29T21:31:54.959Z,5.07
2023-04-29T21:34:22.700Z,4.50
2023-04-29T21:36:50.426Z,4.90
2023-04-29T21:39:18.082Z,4.60
2023-04-29T21:41:47.529Z,4.90
2023-04-29T21:44:15.239Z,4.90
2023-04-29T21:46:42.956Z,4.87
2023-04-29T21:49:10.822Z,4.70
2023-04-29T21:51:38.513Z,5.33
2023-04-29T21:54:08.555Z,5.13
2023-04-29T21:56:36.592Z,4.43
2023-04-29T21:59:05.681Z,4.40
2023-04-29T22:01:50.428Z,4.60
2023-04-29T22:04:19.036Z,4.50
2023-04-29T22:06:47.036Z,4.30
2023-04-29T22:09:16.182Z,4.37
2023-04-29T22:11:44.007Z,4.60
2023-04-29T22:14:13.139Z,3.97
2023-04-29T22:16:41.328Z,3.47
2023-04-29T22:19:09.090Z,3.57
2023-04-29T22:21:38.227Z,3.93
2023-04-29T22:24:06.330Z,3.73
2023-04-29T22:26:34.032Z,4.03
2023-04-29T22:29:01.780Z,3.70
2023-04-29T22:31:30.945Z,3.67
2023-04-29T22:33:58.710Z,3.80
2023-04-29T22:36:27.337Z,3.80
2023-04-29T22:38:55.013Z,3.93
2023-04-29T22:41:22.699Z,3.93
2023-04-29T22:43:52.141Z,4.00
2023-04-29T22:46:19.896Z,3.70
2023-04-29T22:48:49.007Z,3.73
2023-04-29T22:51:16.723Z,3.80
2023-04-29T22:53:44.471Z,3.70
2023-04-29T22:56:12.284Z,3.40
2023-04-29T22:58:40.729Z,3.90
2023-04-29T23:01:10.641Z,3.00
2023-04-29T23:03:39.808Z,3.60
2023-04-29T23:06:08.963Z,3.70
2023-04-29T23:08:36.736Z,3.53
2023-04-29T23:11:04.410Z,4.30
2023-04-29T23:13:32.660Z,4.50
2023-04-29T23:16:01.096Z,3.63
2023-04-29T23:18:28.906Z,3.50
2023-04-29T23:20:57.173Z,3.27
2023-04-29T23:23:26.339Z,3.40
2023-04-29T23:25:54.017Z,3.13
2023-04-29T23:28:21.912Z,3.13
2023-04-29T23:30:49.625Z,3.37
2023-04-29T23:33:17.484Z,3.20
2023-04-29T23:35:49.778Z,3.27
2023-04-29T23:38:17.595Z,3.70
2023-04-29T23:40:47.487Z,3.40
2023-04-29T23:43:15.848Z,3.60
2023-04-29T23:45:44.906Z,3.27
2023-04-29T23:48:12.854Z,3.60
2023-04-29T23:50:40.616Z,4.10
2023-04-29T23:53:08.301Z,3.57
2023-04-29T23:55:36.019Z,3.60
2023-04-29T23:58:05.227Z,3.70
